sensor_id;sensor_type;location;lat;lon;timestamp;P1;durP1;ratioP1;P2;durP2;ratioP2
15155;SDS011;7678;50.058;8.306;2023-12-20T00:01:10;12.97;;;9.97;;
15155;SDS011;7678;50.058;8.306;2023-12-20T00:03:38;11.40;;;9.00;;
15155;SDS011;7678;50.058;8.306;2023-12-20T00:06:08;11.90;;;9.80;;
15155;SDS011;7678;50.058;8.306;2023-12-20T00:08:37;11.23;;;9.50;;
15155;SDS011;7678;50.058;8.306;2023-12-20T00:11:05;13.23;;;9.33;;
15155;SDS011;7678;50.058;8.306;2023-12-20T00:13:33;12.93;;;9.10;;
15155;SDS011;7678;50.058;8.306;2023-12-20T00:16:02;11.60;;;9.40;;
15155;SDS011;7678;50.058;8.306;2023-12-20T00:18:32;11.30;;;8.83;;
15155;SDS011;7678;50.058;8.306;2023-12-20T00:21:00;13.60;;;9.50;;
15155;SDS011;7678;50.058;8.306;2023-12-20T00:23:29;11.90;;;9.70;;
15155;SDS011;7678;50.058;8.306;2023-12-20T00:25:57;11.27;;;9.10;;
15155;SDS011;7678;50.058;8.306;2023-12-20T00:28:25;12.20;;;9.40;;
15155;SDS011;7678;50.058;8.306;2023-12-20T00:30:54;10.10;;;8.40;;
15155;SDS011;7678;50.058;8.306;2023-12-20T00:33:22;12.17;;;9.50;;
15155;SDS011;7678;50.058;8.306;2023-12-20T00:35:52;11.57;;;9.03;;
15155;SDS011;7678;50.058;8.306;2023-12-20T00:38:20;11.47;;;8.60;;
15155;SDS011;7678;50.058;8.306;2023-12-20T00:40:49;13.33;;;9.03;;
15155;SDS011;7678;50.058;8.306;2023-12-20T00:43:17;11.57;;;9.00;;
15155;SDS011;7678;50.058;8.306;2023-12-20T00:45:45;12.07;;;8.80;;
15155;SDS011;7678;50.058;8.306;2023-12-20T00:48:14;11.07;;;7.93;;
15155;SDS011;7678;50.058;8.306;2023-12-20T00:50:42;9.67;;;7.80;;
15155;SDS011;7678;50.058;8.306;2023-12-20T00:53:12;8.50;;;7.03;;
15155;SDS011;7678;50.058;8.306;2023-12-20T00:55:41;9.77;;;7.57;;
15155;SDS011;7678;50.058;8.306;2023-12-20T00:58:10;10.30;;;7.40;;
15155;SDS011;7678;50.058;8.306;2023-12-20T01:00:38;9.03;;;7.17;;
15155;SDS011;7678;50.058;8.306;2023-12-20T01:03:10;10.90;;;7.20;;
15155;SDS011;7678;50.058;8.306;2023-12-20T01:05:38;9.20;;;6.93;;
15155;SDS011;7678;50.058;8.306;2023-12-20T01:08:06;9.43;;;6.93;;
15155;SDS011;7678;50.058;8.306;2023-12-20T01:10:36;8.67;;;7.20;;
15155;SDS011;7678;50.058;8.306;2023-12-20T01:13:04;8.53;;;7.00;;
15155;SDS011;7678;50.058;8.306;2023-12-20T01:15:32;8.67;;;7.20;;
15155;SDS011;7678;50.058;8.306;2023-12-20T01:18:00;8.53;;;6.57;;
15155;SDS011;7678;50.058;8.306;2023-12-20T01:20:29;8.77;;;6.77;;
15155;SDS011;7678;50.058;8.306;2023-12-20T01:22:57;8.70;;;6.77;;
15155;SDS011;7678;50.058;8.306;2023-12-20T01:25:26;9.47;;;6.77;;
15155;SDS011;7678;50.058;8.306;2023-12-20T01:27:55;7.37;;;6.63;;
15155;SDS011;7678;50.058;8.306;2023-12-20T01:30:23;9.60;;;6.87;;
15155;SDS011;7678;50.058;8.306;2023-12-20T01:32:52;7.00;;;6.30;;
15155;SDS011;7678;50.058;8.306;2023-12-20T01:35:20;9.80;;;6.77;;
15155;SDS011;7678;50.058;8.306;2023-12-20T01:37:49;8.17;;;6.37;;
15155;SDS011;7678;50.058;8.306;2023-12-20T01:40:17;6.80;;;5.57;;
15155;SDS011;7678;50.058;8.306;2023-12-20T01:42:47;8.90;;;6.20;;
15155;SDS011;7678;50.058;8.306;2023-12-20T01:45:24;6.90;;;5.27;;
15155;SDS011;7678;50.058;8.306;2023-12-20T01:47:53;8.30;;;5.93;;
15155;SDS011;7678;50.058;8.306;2023-12-20T01:50:22;7.27;;;6.23;;
15155;SDS011;7678;50.058;8.306;2023-12-20T01:52:51;8.50;;;5.87;;
15155;SDS011;7678;50.058;8.306;2023-12-20T01:55:24;6.67;;;5.97;;
15155;SDS011;7678;50.058;8.306;2023-12-20T01:57:52;8.60;;;5.93;;
15155;SDS011;7678;50.058;8.306;2023-12-20T02:00:22;7.63;;;5.90;;
15155;SDS011;7678;50.058;8.306;2023-12-20T02:02:53;6.87;;;5.37;;
15155;SDS011;7678;50.058;8.306;2023-12-20T02:05:22;6.40;;;5.20;;
15155;SDS011;7678;50.058;8.306;2023-12-20T02:07:51;7.60;;;5.70;;
15155;SDS011;7678;50.058;8.306;2023-12-20T02:10:19;6.43;;;5.07;;
15155;SDS011;7678;50.058;8.306;2023-12-20T02:12:48;7.00;;;5.53;;
15155;SDS011;7678;50.058;8.306;2023-12-20T02:15:16;8.00;;;4.63;;
15155;SDS011;7678;50.058;8.306;2023-12-20T02:17:46;5.07;;;4.57;;
15155;SDS011;7678;50.058;8.306;2023-12-20T02:20:15;5.97;;;4.90;;
15155;SDS011;7678;50.058;8.306;2023-12-20T02:22:45;8.03;;;5.13;;
15155;SDS011;7678;50.058;8.306;2023-12-20T02:25:13;6.87;;;4.87;;
15155;SDS011;7678;50.058;8.306;2023-12-20T02:27:42;6.57;;;4.53;;
15155;SDS011;7678;50.058;8.306;2023-12-20T02:30:10;4.87;;;4.17;;
15155;SDS011;7678;50.058;8.306;2023-12-20T02:32:39;4.90;;;4.27;;
15155;SDS011;7678;50.058;8.306;2023-12-20T02:35:07;5.80;;;4.63;;
15155;SDS011;7678;50.058;8.306;2023-12-20T02:37:35;6.97;;;4.57;;
15155;SDS011;7678;50.058;8.306;2023-12-20T02:40:06;4.67;;;4.17;;
15155;SDS011;7678;50.058;8.306;2023-12-20T02:42:34;5.67;;;4.87;;
15155;SDS011;7678;50.058;8.306;2023-12-20T02:45:03;7.00;;;4.60;;
15155;SDS011;7678;50.058;8.306;2023-12-20T02:47:31;6.60;;;4.83;;
15155;SDS011;7678;50.058;8.306;2023-12-20T02:50:00;5.00;;;4.17;;
15155;SDS011;7678;50.058;8.306;2023-12-20T02:52:28;5.73;;;4.93;;
15155;SDS011;7678;50.058;8.306;2023-12-20T02:54:57;6.43;;;5.03;;
15155;SDS011;7678;50.058;8.306;2023-12-20T02:57:26;6.40;;;5.47;;
15155;SDS011;7678;50.058;8.306;2023-12-20T02:59:54;6.63;;;5.50;;
15155;SDS011;7678;50.058;8.306;2023-12-20T03:02:22;8.80;;;5.80;;
15155;SDS011;7678;50.058;8.306;2023-12-20T03:04:50;6.03;;;4.93;;
15155;SDS011;7678;50.058;8.306;2023-12-20T03:07:18;6.53;;;5.00;;
15155;SDS011;7678;50.058;8.306;2023-12-20T03:09:47;5.13;;;4.60;;
15155;SDS011;7678;50.058;8.306;2023-12-20T03:12:36;6.77;;;4.87;;
15155;SDS011;7678;50.058;8.306;2023-12-20T03:15:04;5.90;;;4.63;;
15155;SDS011;7678;50.058;8.306;2023-12-20T03:17:33;5.50;;;4.50;;
15155;SDS011;7678;50.058;8.306;2023-12-20T03:20:01;10.67;;;5.00;;
15155;SDS011;7678;50.058;8.306;2023-12-20T03:22:29;6.27;;;5.33;;
15155;SDS011;7678;50.058;8.306;2023-12-20T03:24:57;5.87;;;5.03;;
15155;SDS011;7678;50.058;8.306;2023-12-20T03:27:26;7.20;;;5.80;;
15155;SDS011;7678;50.058;8.306;2023-12-20T03:29:55;6.23;;;5.60;;
15155;SDS011;7678;50.058;8.306;2023-12-20T03:32:23;6.70;;;5.90;;
15155;SDS011;7678;50.058;8.306;2023-12-20T03:34:51;7.50;;;6.50;;
15155;SDS011;7678;50.058;8.306;2023-12-20T03:37:20;6.43;;;5.73;;
15155;SDS011;7678;50.058;8.306;2023-12-20T03:39:48;7.50;;;6.43;;
15155;SDS011;7678;50.058;8.306;2023-12-20T03:42:16;7.03;;;6.33;;
15155;SDS011;7678;50.058;8.306;2023-12-20T03:44:45;7.40;;;6.40;;
15155;SDS011;7678;50.058;8.306;2023-12-20T03:47:14;11.50;;;7.60;;
15155;SDS011;7678;50.058;8.306;2023-12-20T03:49:42;8.53;;;7.33;;
15155;SDS011;7678;50.058;8.306;2023-12-20T03:52:10;9.07;;;7.43;;
15155;SDS011;7678;50.058;8.306;2023-12-20T03:54:39;10.23;;;7.37;;
15155;SDS011;7678;50.058;8.306;2023-12-20T03:57:08;7.77;;;6.93;;
15155;SDS011;7678;50.058;8.306;2023-12-20T03:59:36;9.80;;;7.87;;
15155;SDS011;7678;50.058;8.306;2023-12-20T04:02:05;7.73;;;6.83;;
15155;SDS011;7678;50.058;8.306;2023-12-20T04:04:35;7.80;;;6.63;;
15155;SDS011;7678;50.058;8.306;2023-12-20T04:07:03;9.07;;;6.70;;
15155;SDS011;7678;50.058;8.306;2023-12-20T04:09:31;8.83;;;6.93;;
15155;SDS011;7678;50.058;8.306;2023-12-20T04:12:00;8.27;;;7.37;;
15155;SDS011;7678;50.058;8.306;2023-12-20T04:14:28;10.77;;;7.23;;
15155;SDS011;7678;50.058;8.306;2023-12-20T04:16:56;9.80;;;7.07;;
15155;SDS011;7678;50.058;8.306;2023-12-20T04:19:24;7.77;;;6.73;;
15155;SDS011;7678;50.058;8.306;2023-12-20T04:21:53;8.83;;;6.70;;
15155;SDS011;7678;50.058;8.306;2023-12-20T04:24:21;9.13;;;6.70;;
15155;SDS011;7678;50.058;8.306;2023-12-20T04:26:50;8.57;;;7.00;;
15155;SDS011;7678;50.058;8.306;2023-12-20T04:29:18;8.33;;;6.50;;
15155;SDS011;7678;50.058;8.306;2023-12-20T04:31:46;7.37;;;6.37;;
15155;SDS011;7678;50.058;8.306;2023-12-20T04:34:16;10.60;;;6.50;;
15155;SDS011;7678;50.058;8.306;2023-12-20T04:36:44;9.20;;;6.47;;
15155;SDS011;7678;50.058;8.306;2023-12-20T04:39:14;9.67;;;6.47;;
15155;SDS011;7678;50.058;8.306;2023-12-20T04:41:42;7.57;;;5.33;;
15155;SDS011;7678;50.058;8.306;2023-12-20T04:44:10;9.67;;;5.73;;
15155;SDS011;7678;50.058;8.306;2023-12-20T04:46:39;7.77;;;6.17;;
15155;SDS011;7678;50.058;8.306;2023-12-20T04:49:07;7.33;;;6.20;;
15155;SDS011;7678;50.058;8.306;2023-12-20T04:51:35;6.90;;;6.07;;
15155;SDS011;7678;50.058;8.306;2023-12-20T04:54:04;6.90;;;6.10;;
15155;SDS011;7678;50.058;8.306;2023-12-20T04:56:33;8.20;;;6.10;;
15155;SDS011;7678;50.058;8.306;2023-12-20T04:59:01;6.40;;;5.70;;
15155;SDS011;7678;50.058;8.306;2023-12-20T05:01:30;7.73;;;6.23;;
15155;SDS011;7678;50.058;8.306;2023-12-20T05:03:58;10.20;;;5.83;;
15155;SDS011;7678;50.058;8.306;2023-12-20T05:06:26;6.83;;;5.10;;
15155;SDS011;7678;50.058;8.306;2023-12-20T05:08:54;10.70;;;3.70;;
15155;SDS011;7678;50.058;8.306;2023-12-20T05:11:22;6.77;;;3.30;;
15155;SDS011;7678;50.058;8.306;2023-12-20T05:13:52;13.33;;;4.60;;
15155;SDS011;7678;50.058;8.306;2023-12-20T05:16:20;9.17;;;3.90;;
15155;SDS011;7678;50.058;8.306;2023-12-20T05:18:48;7.67;;;3.40;;
15155;SDS011;7678;50.058;8.306;2023-12-20T05:21:18;11.00;;;3.67;;
15155;SDS011;7678;50.058;8.306;2023-12-20T05:23:46;10.57;;;3.77;;
15155;SDS011;7678;50.058;8.306;2023-12-20T05:26:15;8.13;;;3.77;;
15155;SDS011;7678;50.058;8.306;2023-12-20T05:28:43;9.13;;;3.50;;
15155;SDS011;7678;50.058;8.306;2023-12-20T05:31:13;8.10;;;3.40;;
15155;SDS011;7678;50.058;8.306;2023-12-20T05:33:41;6.50;;;3.00;;
15155;SDS011;7678;50.058;8.306;2023-12-20T05:36:09;9.23;;;4.03;;
15155;SDS011;7678;50.058;8.306;2023-12-20T05:38:39;9.77;;;3.43;;
15155;SDS011;7678;50.058;8.306;2023-12-20T05:41:08;9.60;;;3.57;;
15155;SDS011;7678;50.058;8.306;2023-12-20T05:43:36;10.70;;;3.30;;
15155;SDS011;7678;50.058;8.306;2023-12-20T05:46:04;12.30;;;4.27;;
15155;SDS011;7678;50.058;8.306;2023-12-20T05:48:34;9.33;;;4.90;;
15155;SDS011;7678;50.058;8.306;2023-12-20T05:51:02;12.07;;;4.20;;
15155;SDS011;7678;50.058;8.306;2023-12-20T05:53:30;6.07;;;3.50;;
15155;SDS011;7678;50.058;8.306;2023-12-20T05:55:59;9.17;;;3.80;;
15155;SDS011;7678;50.058;8.306;2023-12-20T05:58:27;9.37;;;4.07;;
15155;SDS011;7678;50.058;8.306;2023-12-20T06:00:55;16.53;;;4.80;;
15155;SDS011;7678;50.058;8.306;2023-12-20T06:03:24;7.93;;;3.90;;
15155;SDS011;7678;50.058;8.306;2023-12-20T06:05:53;13.03;;;4.70;;
15155;SDS011;7678;50.058;8.306;2023-12-20T06:08:38;8.00;;;4.30;;
15155;SDS011;7678;50.058;8.306;2023-12-20T06:11:07;11.53;;;4.77;;
15155;SDS011;7678;50.058;8.306;2023-12-20T06:13:35;11.37;;;4.90;;
15155;SDS011;7678;50.058;8.306;2023-12-20T06:16:04;10.97;;;5.20;;
15155;SDS011;7678;50.058;8.306;2023-12-20T06:18:34;9.70;;;5.40;;
15155;SDS011;7678;50.058;8.306;2023-12-20T06:21:05;10.47;;;5.70;;
15155;SDS011;7678;50.058;8.306;2023-12-20T06:23:34;17.67;;;6.47;;
15155;SDS011;7678;50.058;8.306;2023-12-20T06:26:02;20.57;;;6.33;;
15155;SDS011;7678;50.058;8.306;2023-12-20T06:28:33;10.47;;;7.50;;
15155;SDS011;7678;50.058;8.306;2023-12-20T06:31:03;16.50;;;8.00;;
15155;SDS011;7678;50.058;8.306;2023-12-20T06:33:31;13.13;;;6.67;;
15155;SDS011;7678;50.058;8.306;2023-12-20T06:35:59;20.43;;;7.63;;
15155;SDS011;7678;50.058;8.306;2023-12-20T06:38:29;20.83;;;9.00;;
15155;SDS011;7678;50.058;8.306;2023-12-20T06:40:57;20.43;;;8.77;;
15155;SDS011;7678;50.058;8.306;2023-12-20T06:43:25;23.67;;;10.90;;
15155;SDS011;7678;50.058;8.306;2023-12-20T06:46:11;22.40;;;9.30;;
15155;SDS011;7678;50.058;8.306;2023-12-20T06:48:40;19.57;;;8.33;;
15155;SDS011;7678;50.058;8.306;2023-12-20T06:51:12;14.57;;;6.83;;
15155;SDS011;7678;50.058;8.306;2023-12-20T06:53:43;22.37;;;8.30;;
15155;SDS011;7678;50.058;8.306;2023-12-20T06:56:11;18.47;;;7.43;;
15155;SDS011;7678;50.058;8.306;2023-12-20T06:58:44;15.53;;;7.23;;
15155;SDS011;7678;50.058;8.306;2023-12-20T07:01:12;13.87;;;7.77;;
15155;SDS011;7678;50.058;8.306;2023-12-20T07:03:41;19.07;;;7.40;;
15155;SDS011;7678;50.058;8.306;2023-12-20T07:06:09;20.33;;;7.57;;
15155;SDS011;7678;50.058;8.306;2023-12-20T07:08:38;19.47;;;7.33;;
15155;SDS011;7678;50.058;8.306;2023-12-20T07:11:08;14.03;;;6.83;;
15155;SDS011;7678;50.058;8.306;2023-12-20T07:13:37;18.67;;;8.20;;
15155;SDS011;7678;50.058;8.306;2023-12-20T07:16:05;22.67;;;9.77;;
15155;SDS011;7678;50.058;8.306;2023-12-20T07:18:34;19.33;;;10.20;;
15155;SDS011;7678;50.058;8.306;2023-12-20T07:21:02;21.07;;;8.93;;
15155;SDS011;7678;50.058;8.306;2023-12-20T07:23:31;19.67;;;8.87;;
15155;SDS011;7678;50.058;8.306;2023-12-20T07:25:59;15.83;;;8.07;;
15155;SDS011;7678;50.058;8.306;2023-12-20T07:28:29;17.33;;;7.10;;
15155;SDS011;7678;50.058;8.306;2023-12-20T07:30:57;15.27;;;6.97;;
15155;SDS011;7678;50.058;8.306;2023-12-20T07:33:26;14.63;;;7.17;;
15155;SDS011;7678;50.058;8.306;2023-12-20T07:35:54;16.03;;;6.30;;
15155;SDS011;7678;50.058;8.306;2023-12-20T07:38:22;16.20;;;6.77;;
15155;SDS011;7678;50.058;8.306;2023-12-20T07:40:50;10.83;;;6.00;;
15155;SDS011;7678;50.058;8.306;2023-12-20T07:43:18;12.37;;;6.33;;
15155;SDS011;7678;50.058;8.306;2023-12-20T07:45:48;13.63;;;6.40;;
15155;SDS011;7678;50.058;8.306;2023-12-20T07:48:16;13.70;;;7.00;;
15155;SDS011;7678;50.058;8.306;2023-12-20T07:50:44;16.80;;;7.40;;
15155;SDS011;7678;50.058;8.306;2023-12-20T07:53:12;15.80;;;6.87;;
15155;SDS011;7678;50.058;8.306;2023-12-20T07:55:41;15.97;;;7.60;;
15155;SDS011;7678;50.058;8.306;2023-12-20T07:58:09;21.93;;;8.30;;
15155;SDS011;7678;50.058;8.306;2023-12-20T08:00:37;20.13;;;7.67;;
15155;SDS011;7678;50.058;8.306;2023-12-20T08:03:07;25.23;;;8.30;;
15155;SDS011;7678;50.058;8.306;2023-12-20T08:05:35;18.20;;;7.73;;
15155;SDS011;7678;50.058;8.306;2023-12-20T08:08:03;21.30;;;7.77;;
15155;SDS011;7678;50.058;8.306;2023-12-20T08:10:33;18.33;;;6.57;;
15155;SDS011;7678;50.058;8.306;2023-12-20T08:13:01;16.67;;;6.77;;
15155;SDS011;7678;50.058;8.306;2023-12-20T08:15:29;17.97;;;7.13;;
15155;SDS011;7678;50.058;8.306;2023-12-20T08:17:57;17.23;;;7.23;;
15155;SDS011;7678;50.058;8.306;2023-12-20T08:20:26;17.13;;;6.03;;
15155;SDS011;7678;50.058;8.306;2023-12-20T08:23:05;19.43;;;6.37;;
15155;SDS011;7678;50.058;8.306;2023-12-20T08:25:33;13.90;;;6.03;;
15155;SDS011;7678;50.058;8.306;2023-12-20T08:28:02;17.20;;;5.93;;
15155;SDS011;7678;50.058;8.306;2023-12-20T08:30:31;18.33;;;6.50;;
15155;SDS011;7678;50.058;8.306;2023-12-20T08:32:59;17.57;;;5.57;;
15155;SDS011;7678;50.058;8.306;2023-12-20T08:35:29;22.20;;;5.63;;
15155;SDS011;7678;50.058;8.306;2023-12-20T08:37:57;13.33;;;5.50;;
15155;SDS011;7678;50.058;8.306;2023-12-20T08:40:25;14.90;;;6.27;;
15155;SDS011;7678;50.058;8.306;2023-12-20T08:42:54;20.23;;;5.70;;
15155;SDS011;7678;50.058;8.306;2023-12-20T08:45:30;12.93;;;4.90;;
15155;SDS011;7678;50.058;8.306;2023-12-20T08:47:58;13.40;;;4.70;;
15155;SDS011;7678;50.058;8.306;2023-12-20T08:50:30;13.70;;;4.47;;
15155;SDS011;7678;50.058;8.306;2023-12-20T08:52:59;15.43;;;4.97;;
15155;SDS011;7678;50.058;8.306;2023-12-20T08:55:27;18.80;;;4.70;;
15155;SDS011;7678;50.058;8.306;2023-12-20T08:57:57;16.27;;;4.77;;
15155;SDS011;7678;50.058;8.306;2023-12-20T09:00:26;15.57;;;4.93;;
15155;SDS011;7678;50.058;8.306;2023-12-20T09:02:54;20.10;;;5.03;;
15155;SDS011;7678;50.058;8.306;2023-12-20T09:05:22;18.43;;;5.10;;
15155;SDS011;7678;50.058;8.306;2023-12-20T09:07:52;15.97;;;5.30;;
15155;SDS011;7678;50.058;8.306;2023-12-20T09:10:20;15.63;;;5.27;;
15155;SDS011;7678;50.058;8.306;2023-12-20T09:12:49;14.17;;;4.87;;
15155;SDS011;7678;50.058;8.306;2023-12-20T09:15:23;10.50;;;4.77;;
15155;SDS011;7678;50.058;8.306;2023-12-20T09:17:51;18.13;;;4.80;;
15155;SDS011;7678;50.058;8.306;2023-12-20T09:20:20;16.97;;;5.17;;
15155;SDS011;7678;50.058;8.306;2023-12-20T09:22:51;16.50;;;5.33;;
15155;SDS011;7678;50.058;8.306;2023-12-20T09:25:19;10.17;;;5.57;;
15155;SDS011;7678;50.058;8.306;2023-12-20T09:27:49;16.23;;;5.60;;
15155;SDS011;7678;50.058;8.306;2023-12-20T09:30:18;16.57;;;5.03;;
15155;SDS011;7678;50.058;8.306;2023-12-20T09:32:53;13.93;;;5.80;;
15155;SDS011;7678;50.058;8.306;2023-12-20T09:35:21;12.97;;;5.43;;
15155;SDS011;7678;50.058;8.306;2023-12-20T09:37:51;18.40;;;6.20;;
15155;SDS011;7678;50.058;8.306;2023-12-20T09:40:20;19.27;;;5.97;;
15155;SDS011;7678;50.058;8.306;2023-12-20T09:42:50;16.03;;;6.83;;
15155;SDS011;7678;50.058;8.306;2023-12-20T09:45:24;15.40;;;5.40;;
15155;SDS011;7678;50.058;8.306;2023-12-20T09:47:53;15.67;;;5.97;;
15155;SDS011;7678;50.058;8.306;2023-12-20T09:50:22;14.63;;;6.10;;
15155;SDS011;7678;50.058;8.306;2023-12-20T09:52:52;20.17;;;6.37;;
15155;SDS011;7678;50.058;8.306;2023-12-20T09:55:23;16.10;;;5.40;;
15155;SDS011;7678;50.058;8.306;2023-12-20T09:57:53;15.47;;;5.13;;
15155;SDS011;7678;50.058;8.306;2023-12-20T10:00:21;14.70;;;5.47;;
15155;SDS011;7678;50.058;8.306;2023-12-20T10:02:50;11.90;;;5.27;;
15155;SDS011;7678;50.058;8.306;2023-12-20T10:05:26;16.13;;;4.60;;
15155;SDS011;7678;50.058;8.306;2023-12-20T10:07:56;12.50;;;4.87;;
15155;SDS011;7678;50.058;8.306;2023-12-20T10:10:26;14.40;;;4.63;;
15155;SDS011;7678;50.058;8.306;2023-12-20T10:13:10;15.77;;;4.80;;
15155;SDS011;7678;50.058;8.306;2023-12-20T10:15:40;13.67;;;4.43;;
15155;SDS011;7678;50.058;8.306;2023-12-20T10:18:09;13.00;;;4.20;;
15155;SDS011;7678;50.058;8.306;2023-12-20T10:20:40;13.67;;;4.53;;
15155;SDS011;7678;50.058;8.306;2023-12-20T10:23:11;14.43;;;4.40;;
15155;SDS011;7678;50.058;8.306;2023-12-20T10:25:40;16.30;;;4.30;;
15155;SDS011;7678;50.058;8.306;2023-12-20T10:28:09;16.90;;;4.20;;
15155;SDS011;7678;50.058;8.306;2023-12-20T10:30:39;14.77;;;5.80;;
15155;SDS011;7678;50.058;8.306;2023-12-20T10:33:09;14.70;;;5.00;;
15155;SDS011;7678;50.058;8.306;2023-12-20T10:35:38;18.80;;;5.63;;
15155;SDS011;7678;50.058;8.306;2023-12-20T10:38:14;14.37;;;5.57;;
15155;SDS011;7678;50.058;8.306;2023-12-20T10:40:43;14.80;;;5.07;;
15155;SDS011;7678;50.058;8.306;2023-12-20T10:43:14;15.10;;;5.17;;
15155;SDS011;7678;50.058;8.306;2023-12-20T10:45:43;10.17;;;4.30;;
15155;SDS011;7678;50.058;8.306;2023-12-20T10:48:11;15.13;;;4.57;;
15155;SDS011;7678;50.058;8.306;2023-12-20T10:50:39;10.07;;;3.93;;
15155;SDS011;7678;50.058;8.306;2023-12-20T10:53:09;11.87;;;4.00;;
15155;SDS011;7678;50.058;8.306;2023-12-20T10:55:42;12.53;;;4.03;;
15155;SDS011;7678;50.058;8.306;2023-12-20T10:58:11;12.57;;;3.87;;
15155;SDS011;7678;50.058;8.306;2023-12-20T11:00:46;13.27;;;4.27;;
15155;SDS011;7678;50.058;8.306;2023-12-20T11:03:19;12.27;;;3.93;;
15155;SDS011;7678;50.058;8.306;2023-12-20T11:05:53;12.47;;;4.00;;
15155;SDS011;7678;50.058;8.306;2023-12-20T11:08:27;11.20;;;3.53;;
15155;SDS011;7678;50.058;8.306;2023-12-20T11:11:02;12.60;;;4.03;;
15155;SDS011;7678;50.058;8.306;2023-12-20T11:13:35;12.07;;;4.00;;
15155;SDS011;7678;50.058;8.306;2023-12-20T11:16:08;15.40;;;3.73;;
15155;SDS011;7678;50.058;8.306;2023-12-20T11:18:36;10.70;;;3.30;;
15155;SDS011;7678;50.058;8.306;2023-12-20T11:21:04;16.07;;;3.03;;
15155;SDS011;7678;50.058;8.306;2023-12-20T11:23:33;10.20;;;2.73;;
15155;SDS011;7678;50.058;8.306;2023-12-20T11:26:03;10.60;;;2.87;;
15155;SDS011;7678;50.058;8.306;2023-12-20T11:28:31;9.23;;;2.70;;
15155;SDS011;7678;50.058;8.306;2023-12-20T11:31:00;8.63;;;2.37;;
15155;SDS011;7678;50.058;8.306;2023-12-20T11:33:30;9.03;;;2.50;;
15155;SDS011;7678;50.058;8.306;2023-12-20T11:36:07;10.87;;;2.73;;
15155;SDS011;7678;50.058;8.306;2023-12-20T11:38:49;11.00;;;2.73;;
15155;SDS011;7678;50.058;8.306;2023-12-20T11:41:25;16.37;;;3.03;;
15155;SDS011;7678;50.058;8.306;2023-12-20T11:43:53;8.37;;;2.70;;
15155;SDS011;7678;50.058;8.306;2023-12-20T11:46:23;10.23;;;2.53;;
15155;SDS011;7678;50.058;8.306;2023-12-20T11:48:51;13.87;;;2.77;;
15155;SDS011;7678;50.058;8.306;2023-12-20T11:51:19;5.60;;;2.00;;
15155;SDS011;7678;50.058;8.306;2023-12-20T11:53:51;8.57;;;2.20;;
15155;SDS011;7678;50.058;8.306;2023-12-20T11:56:19;9.13;;;2.37;;
15155;SDS011;7678;50.058;8.306;2023-12-20T11:58:49;8.00;;;2.53;;
15155;SDS011;7678;50.058;8.306;2023-12-20T12:01:17;11.80;;;2.83;;
15155;SDS011;7678;50.058;8.306;2023-12-20T12:03:48;7.60;;;2.87;;
15155;SDS011;7678;50.058;8.306;2023-12-20T12:06:16;8.87;;;2.67;;
15155;SDS011;7678;50.058;8.306;2023-12-20T12:08:47;11.07;;;3.23;;
15155;SDS011;7678;50.058;8.306;2023-12-20T12:11:15;10.33;;;2.90;;
15155;SDS011;7678;50.058;8.306;2023-12-20T12:13:46;14.63;;;3.77;;
15155;SDS011;7678;50.058;8.306;2023-12-20T12:16:18;9.67;;;3.20;;
15155;SDS011;7678;50.058;8.306;2023-12-20T12:18:54;10.90;;;3.03;;
15155;SDS011;7678;50.058;8.306;2023-12-20T12:21:23;14.47;;;3.57;;
15155;SDS011;7678;50.058;8.306;2023-12-20T12:24:06;9.97;;;2.90;;
15155;SDS011;7678;50.058;8.306;2023-12-20T12:26:34;16.93;;;3.10;;
15155;SDS011;7678;50.058;8.306;2023-12-20T12:29:03;8.50;;;2.70;;
15155;SDS011;7678;50.058;8.306;2023-12-20T12:31:32;18.20;;;3.20;;
15155;SDS011;7678;50.058;8.306;2023-12-20T12:34:00;12.97;;;2.70;;
15155;SDS011;7678;50.058;8.306;2023-12-20T12:36:29;13.33;;;3.03;;
15155;SDS011;7678;50.058;8.306;2023-12-20T12:39:01;13.47;;;3.00;;
15155;SDS011;7678;50.058;8.306;2023-12-20T12:41:31;10.03;;;2.83;;
15155;SDS011;7678;50.058;8.306;2023-12-20T12:43:59;7.80;;;2.63;;
15155;SDS011;7678;50.058;8.306;2023-12-20T12:46:41;6.77;;;2.87;;
15155;SDS011;7678;50.058;8.306;2023-12-20T12:49:09;7.83;;;2.57;;
15155;SDS011;7678;50.058;8.306;2023-12-20T12:51:38;8.43;;;2.73;;
15155;SDS011;7678;50.058;8.306;2023-12-20T12:54:06;8.37;;;2.37;;
15155;SDS011;7678;50.058;8.306;2023-12-20T12:56:37;7.00;;;2.37;;
15155;SDS011;7678;50.058;8.306;2023-12-20T12:59:05;10.27;;;2.90;;
15155;SDS011;7678;50.058;8.306;2023-12-20T13:01:33;9.50;;;2.67;;
15155;SDS011;7678;50.058;8.306;2023-12-20T13:04:03;8.60;;;2.40;;
15155;SDS011;7678;50.058;8.306;2023-12-20T13:06:37;6.70;;;2.03;;
15155;SDS011;7678;50.058;8.306;2023-12-20T13:09:07;7.57;;;2.27;;
15155;SDS011;7678;50.058;8.306;2023-12-20T13:11:36;10.10;;;3.00;;
15155;SDS011;7678;50.058;8.306;2023-12-20T13:14:04;10.70;;;2.53;;
15155;SDS011;7678;50.058;8.306;2023-12-20T13:16:32;7.43;;;2.53;;
15155;SDS011;7678;50.058;8.306;2023-12-20T13:19:02;7.20;;;3.10;;
15155;SDS011;7678;50.058;8.306;2023-12-20T13:21:31;12.10;;;2.63;;
15155;SDS011;7678;50.058;8.306;2023-12-20T13:23:59;7.87;;;2.87;;
15155;SDS011;7678;50.058;8.306;2023-12-20T13:26:27;8.10;;;2.73;;
15155;SDS011;7678;50.058;8.306;2023-12-20T13:28:56;9.87;;;3.60;;
15155;SDS011;7678;50.058;8.306;2023-12-20T13:31:24;8.80;;;2.90;;
15155;SDS011;7678;50.058;8.306;2023-12-20T13:33:52;9.03;;;3.00;;
15155;SDS011;7678;50.058;8.306;2023-12-20T13:36:22;9.67;;;3.63;;
15155;SDS011;7678;50.058;8.306;2023-12-20T13:38:50;11.83;;;3.40;;
15155;SDS011;7678;50.058;8.306;2023-12-20T13:41:19;10.53;;;3.57;;
15155;SDS011;7678;50.058;8.306;2023-12-20T13:43:47;12.37;;;3.60;;
15155;SDS011;7678;50.058;8.306;2023-12-20T13:46:16;6.43;;;2.70;;
15155;SDS011;7678;50.058;8.306;2023-12-20T13:48:44;10.90;;;2.37;;
15155;SDS011;7678;50.058;8.306;2023-12-20T13:51:12;10.27;;;2.83;;
15155;SDS011;7678;50.058;8.306;2023-12-20T13:53:42;8.97;;;2.63;;
15155;SDS011;7678;50.058;8.306;2023-12-20T13:56:10;8.70;;;2.20;;
15155;SDS011;7678;50.058;8.306;2023-12-20T13:58:38;6.00;;;2.10;;
15155;SDS011;7678;50.058;8.306;2023-12-20T14:01:08;7.33;;;2.10;;
15155;SDS011;7678;50.058;8.306;2023-12-20T14:03:37;3.90;;;1.53;;
15155;SDS011;7678;50.058;8.306;2023-12-20T14:06:05;8.00;;;2.17;;
15155;SDS011;7678;50.058;8.306;2023-12-20T14:08:34;6.20;;;2.00;;
15155;SDS011;7678;50.058;8.306;2023-12-20T14:11:04;8.17;;;2.17;;
15155;SDS011;7678;50.058;8.306;2023-12-20T14:13:32;8.40;;;2.00;;
15155;SDS011;7678;50.058;8.306;2023-12-20T14:16:01;5.77;;;2.03;;
15155;SDS011;7678;50.058;8.306;2023-12-20T14:18:30;6.40;;;2.10;;
15155;SDS011;7678;50.058;8.306;2023-12-20T14:20:58;7.13;;;1.93;;
15155;SDS011;7678;50.058;8.306;2023-12-20T14:23:26;4.47;;;1.50;;
15155;SDS011;7678;50.058;8.306;2023-12-20T14:25:54;5.87;;;1.60;;
15155;SDS011;7678;50.058;8.306;2023-12-20T14:28:26;4.80;;;1.57;;
15155;SDS011;7678;50.058;8.306;2023-12-20T14:30:54;6.60;;;1.70;;
15155;SDS011;7678;50.058;8.306;2023-12-20T14:33:24;7.47;;;2.20;;
15155;SDS011;7678;50.058;8.306;2023-12-20T14:35:52;6.63;;;2.17;;
15155;SDS011;7678;50.058;8.306;2023-12-20T14:38:20;10.30;;;2.67;;
15155;SDS011;7678;50.058;8.306;2023-12-20T14:40:49;6.20;;;2.30;;
15155;SDS011;7678;50.058;8.306;2023-12-20T14:43:18;7.27;;;2.50;;
15155;SDS011;7678;50.058;8.306;2023-12-20T14:45:50;6.83;;;3.03;;
15155;SDS011;7678;50.058;8.306;2023-12-20T14:48:18;4.87;;;2.50;;
15155;SDS011;7678;50.058;8.306;2023-12-20T14:50:47;5.63;;;2.07;;
15155;SDS011;7678;50.058;8.306;2023-12-20T14:53:16;5.03;;;1.90;;
15155;SDS011;7678;50.058;8.306;2023-12-20T14:55:48;5.20;;;2.10;;
15155;SDS011;7678;50.058;8.306;2023-12-20T14:58:17;5.27;;;1.93;;
15155;SDS011;7678;50.058;8.306;2023-12-20T15:00:45;5.90;;;1.93;;
15155;SDS011;7678;50.058;8.306;2023-12-20T15:03:15;9.80;;;2.13;;
15155;SDS011;7678;50.058;8.306;2023-12-20T15:05:45;6.57;;;1.87;;
15155;SDS011;7678;50.058;8.306;2023-12-20T15:08:14;7.63;;;2.07;;